Hauptseite
METAR-TAF:

METAR-TAF

Flughäfen :

London Biggin Hill Airport

London Biggin Hill, England

Breite: 51-19N, Länge: 000-02E, Höhe: 183 m

Beobachtung

Neuester Wetterbericht von vor 6 Stunden und 55 Minuten, um 21:20 UTC
Wind 4 kt aus Nordwest
Temperatur -1°C
Luftfeuchtigkeit 86%
Luftdruck 1022 hPa
Sichtweite 10 km oder mehr
keine Wolken unter 1500 m und keine Kumulonimbus oder Gewitterwolken

METAR: EGKB 202120Z 32004KT CAVOK M01/M03 Q1022

Zeit: 04:15 (04:15 UTC)

Prognose

Neuester Wetterbericht von vor 11 Stunden und 12 Minuten, um 17:03 UTC
Gültige Prognose vom 20 um 18 UTC bis 20 um 22 UTC
Wind 4 kt aus Nord
Sichtweite 10 km oder mehr
Leicht bewölkt in der Höhe von 2000 ft
Wahrscheinlichkeit 30%
vom 20 um 18 UTC bis 20 um 21 UTC
Sichtweite: 8000 m

TAF: EGKB 201703Z 2018/2022 01004KT 9999 FEW020 PROB30 2018/2021 8000

Wetterbeobachtungen und Prognosen von mehr als 4000 Flughäfen (METAR und TAF Bericht).

Die verfügbaren Stationen werden durch gelbe und rote Markierungen auf der Karte dargestellt.

Führen Sie die Maus auf sie, um den Namen der Station zu sehen.

Darauf klicken, um die Beobachtung von Wetterbeobachtungen und Prognosen zu sehen.

Um die Karte zu ändern : klicken Sie auf den grünen Tasten mit einem schwarzen Kreuz Zum Vergrößern, auf den grünen Button mit einem Gedankenstrich zu verkleinern, oder auf die grünen Pfeile für benachbarte Karten.


METAR-TAF: